Time;durP1;ratioP1;P1;durP2;ratioP2;P2;SDS_P1;SDS_P2;PMS_P1;PMS_P2;Temp;Humidity;BMP_temperature;BMP_pressure;BME280_temperature;BME280_humidity;BME280_pressure;Samples;Min_cycle;Max_cycle;Signal;HPM_P1;HPM_P2
2024/01/07 00:08:23;;;;;;;13.30;8.35;;;2.40;1.00;;;;;;20752281;28;20037;-39
2024/01/07 00:18:24;;;;;;;14.27;8.50;;;2.40;1.00;;;;;;20763641;28;20030;-40
2024/01/07 00:28:25;;;;;;;14.30;8.27;;;2.40;3.60;;;;;;20767614;28;21082;-40
2024/01/07 00:38:25;;;;;;;15.90;8.82;;;2.30;5.50;;;;;;20763044;28;20472;-40
2024/01/07 00:48:26;;;;;;;20.08;10.18;;;2.40;5.80;;;;;;20749484;28;20071;-40
2024/01/07 00:58:26;;;;;;;19.05;10.43;;;2.40;4.30;;;;;;20764310;28;20034;-40
2024/01/07 01:08:27;;;;;;;17.35;10.27;;;2.40;5.10;;;;;;20742084;28;20489;-40
2024/01/07 01:18:28;;;;;;;16.02;9.13;;;2.10;9.40;;;;;;20774894;28;20103;-40
2024/01/07 01:28:29;;;;;;;18.33;9.75;;;2.10;16.90;;;;;;20773507;28;20033;-40
2024/01/07 01:38:29;;;;;;;17.88;10.05;;;2.10;24.60;;;;;;20767958;28;20137;-39
2024/01/07 01:48:30;;;;;;;14.73;8.93;;;2.10;21.90;;;;;;20766111;28;20517;-39
2024/01/07 01:58:32;;;;;;;16.65;8.90;;;2.20;16.10;;;;;;20766966;28;20049;-39
2024/01/07 02:08:33;;;;;;;15.32;8.35;;;2.10;13.80;;;;;;20756952;28;20447;-40
2024/01/07 02:18:34;;;;;;;16.15;8.90;;;2.20;13.50;;;;;;20762703;28;20037;-39
2024/01/07 02:28:35;;;;;;;14.73;8.48;;;2.10;12.60;;;;;;20767124;28;20041;-39
2024/01/07 02:38:36;;;;;;;21.27;10.90;;;2.10;14.10;;;;;;20767156;28;20049;-39
2024/01/07 02:48:37;;;;;;;19.63;10.88;;;2.10;17.50;;;;;;20763281;28;20545;-39
2024/01/07 02:58:37;;;;;;;23.07;12.23;;;2.00;22.30;;;;;;20764375;28;20154;-40
2024/01/07 03:08:38;;;;;;;24.50;12.18;;;2.00;21.60;;;;;;20765262;28;20539;-40
2024/01/07 03:18:38;;;;;;;23.08;12.20;;;2.00;20.30;;;;;;20765227;28;20091;-40
2024/01/07 03:28:39;;;;;;;22.40;12.15;;;2.10;17.70;;;;;;20770592;28;20041;-40
2024/01/07 03:38:41;;;;;;;25.65;12.98;;;2.00;18.90;;;;;;21095375;22;20052;-39
2024/01/07 03:48:42;;;;;;;21.60;11.57;;;2.00;22.50;;;;;;20813985;28;20048;-39
2024/01/07 03:58:42;;;;;;;21.02;11.30;;;2.00;22.50;;;;;;20817929;28;20045;-39
2024/01/07 04:08:43;;;;;;;19.98;11.25;;;1.90;30.90;;;;;;20815507;28;20391;-39
2024/01/07 04:18:45;;;;;;;23.77;12.27;;;1.90;29.20;;;;;;20819681;28;20045;-39
2024/01/07 04:28:46;;;;;;;20.63;10.98;;;1.90;30.30;;;;;;20827368;28;20124;-39
2024/01/07 04:38:46;;;;;;;26.15;12.85;;;1.90;28.30;;;;;;20849735;28;20071;-38
2024/01/07 04:48:47;;;;;;;25.20;13.00;;;2.00;21.70;;;;;;20914378;28;20411;-38
2024/01/07 04:58:47;;;;;;;22.38;11.93;;;1.80;25.80;;;;;;20917114;28;20455;-46
2024/01/07 05:08:48;;;;;;;23.48;11.60;;;2.00;19.40;;;;;;20913566;28;20052;-39
2024/01/07 05:18:49;;;;;;;20.30;10.77;;;1.90;10.50;;;;;;20908695;28;20106;-39
2024/01/07 05:28:49;;;;;;;20.63;10.93;;;2.00;6.70;;;;;;20913331;28;20455;-39
2024/01/07 05:38:50;;;;;;;21.42;11.15;;;2.00;5.70;;;;;;20910083;28;20569;-40
2024/01/07 05:48:51;;;;;;;24.77;12.60;;;1.90;5.70;;;;;;20910380;28;20036;-38
2024/01/07 05:58:51;;;;;;;21.17;11.50;;;1.90;8.60;;;;;;20911980;28;20068;-39
2024/01/07 06:08:52;;;;;;;24.25;12.68;;;2.00;5.60;;;;;;20910805;28;20531;-39
2024/01/07 06:18:52;;;;;;;22.77;12.25;;;2.00;4.30;;;;;;20904054;28;20036;-39
2024/01/07 06:28:53;;;;;;;18.48;10.63;;;1.90;4.40;;;;;;20906055;28;20040;-39
2024/01/07 06:38:53;;;;;;;19.60;10.97;;;2.00;4.00;;;;;;20906145;28;20048;-38
2024/01/07 06:48:54;;;;;;;22.42;11.00;;;2.00;1.00;;;;;;20902446;28;20450;-39
2024/01/07 06:58:55;;;;;;;17.45;10.27;;;1.90;1.00;;;;;;20881406;28;20067;-38
2024/01/07 07:08:55;;;;;;;20.75;9.65;;;1.90;1.00;;;;;;20891612;28;20059;-39
2024/01/07 07:18:56;;;;;;;16.95;9.88;;;2.00;1.00;;;;;;20896290;28;20040;-39
2024/01/07 07:28:57;;;;;;;19.08;10.05;;;1.90;1.00;;;;;;20890898;28;20061;-40
2024/01/07 07:38:57;;;;;;;19.63;11.27;;;1.90;1.00;;;;;;20896677;28;20049;-39
2024/01/07 07:48:58;;;;;;;16.58;9.18;;;1.90;1.00;;;;;;20895272;28;20047;-39
2024/01/07 07:58:58;;;;;;;15.98;9.85;;;1.80;1.00;;;;;;20899239;28;20041;-38
2024/01/07 08:08:59;;;;;;;16.48;9.30;;;1.80;1.00;;;;;;20903069;28;20045;-39
2024/01/07 08:19:00;;;;;;;18.23;9.70;;;1.70;1.00;;;;;;20920399;28;20558;-40
2024/01/07 08:29:00;;;;;;;17.65;10.02;;;1.70;1.00;;;;;;20923614;28;20447;-39
2024/01/07 08:39:01;;;;;;;16.90;9.63;;;1.70;1.00;;;;;;20929548;28;20047;-39
2024/01/07 08:49:02;;;;;;;16.08;8.88;;;1.60;1.00;;;;;;20914089;28;20044;-39
2024/01/07 08:59:04;;;;;;;16.80;9.05;;;1.70;1.00;;;;;;20923179;28;20079;-39
2024/01/07 09:09:06;;;;;;;14.35;8.30;;;1.70;1.00;;;;;;20916938;28;20520;-39
2024/01/07 09:19:06;;;;;;;15.63;8.52;;;1.60;1.00;;;;;;20929197;28;20049;-40
2024/01/07 09:29:07;;;;;;;16.45;8.80;;;1.60;1.00;;;;;;20913465;28;20754;-39
2024/01/07 09:39:09;;;;;;;13.43;8.35;;;1.60;1.00;;;;;;20913968;28;20045;-40
2024/01/07 09:49:10;;;;;;;12.00;6.97;;;1.60;1.00;;;;;;20905908;28;20033;-39
2024/01/07 09:59:10;;;;;;;12.93;6.68;;;1.60;1.00;;;;;;20914082;28;20044;-39
2024/01/07 10:09:15;;;;;;;11.50;6.00;;;1.60;1.00;;;;;;20920098;28;20090;-39
2024/01/07 10:19:25;;;;;;;9.23;5.57;;;1.60;1.00;;;;;;20916090;28;20083;-39
2024/01/07 10:29:27;;;;;;;7.57;4.28;;;1.80;1.00;;;;;;20908713;28;20136;-38
2024/01/07 10:39:28;;;;;;;8.57;4.38;;;1.70;1.00;;;;;;20906267;28;20404;-39
2024/01/07 10:49:28;;;;;;;7.63;4.60;;;1.80;1.00;;;;;;20906295;28;20142;-39
2024/01/07 10:59:31;;;;;;;5.95;3.47;;;1.90;1.00;;;;;;20898960;28;20041;-40
2024/01/07 11:09:37;;;;;;;5.45;3.33;;;2.10;1.00;;;;;;20896133;28;20567;-40
2024/01/07 11:19:48;;;;;;;5.78;3.40;;;2.20;1.00;;;;;;20891155;28;20419;-40
2024/01/07 11:30:04;;;;;;;5.05;2.75;;;2.50;1.00;;;;;;20878631;28;20041;-39
2024/01/07 11:40:07;;;;;;;8.52;3.95;;;2.80;1.00;;;;;;20903860;28;20091;-39
2024/01/07 11:50:07;;;;;;;5.63;3.20;;;3.30;1.00;;;;;;20908443;28;20445;-39
2024/01/07 12:00:09;;;;;;;4.95;3.15;;;3.60;1.00;;;;;;20904454;28;20517;-39
2024/01/07 12:10:12;;;;;;;6.03;2.30;;;3.80;1.00;;;;;;20895729;28;20067;-39
2024/01/07 12:20:15;;;;;;;4.82;2.35;;;3.70;1.00;;;;;;20893419;28;20049;-39
2024/01/07 12:30:17;;;;;;;3.25;1.70;;;3.40;1.00;;;;;;20878149;28;20041;-39
2024/01/07 12:40:17;;;;;;;3.53;1.60;;;3.10;1.00;;;;;;20887713;28;20045;-39
2024/01/07 12:50:18;;;;;;;4.85;1.83;;;3.60;1.00;;;;;;20890526;28;20033;-39
2024/01/07 13:00:19;;;;;;;3.28;1.55;;;3.50;1.00;;;;;;20909352;28;20150;-40
2024/01/07 13:10:20;;;;;;;3.05;1.60;;;3.60;1.00;;;;;;20895312;28;20041;-40
2024/01/07 13:20:21;;;;;;;3.28;1.60;;;3.40;1.00;;;;;;20912537;28;20123;-39
2024/01/07 13:30:21;;;;;;;2.30;1.20;;;3.00;1.00;;;;;;20907678;28;20051;-40
2024/01/07 13:40:22;;;;;;;3.13;1.20;;;2.90;1.00;;;;;;20871961;28;20503;-39
2024/01/07 13:50:22;;;;;;;4.57;2.30;;;2.60;1.00;;;;;;20885592;28;20040;-40
2024/01/07 14:00:23;;;;;;;3.07;1.50;;;2.40;1.00;;;;;;20903946;28;20055;-39
2024/01/07 14:10:24;;;;;;;3.27;1.40;;;2.40;1.00;;;;;;20901162;28;20475;-39
2024/01/07 14:20:24;;;;;;;2.55;1.40;;;2.40;1.00;;;;;;20887363;28;20471;-39
2024/01/07 14:30:25;;;;;;;3.47;1.50;;;2.30;1.00;;;;;;20900136;28;20127;-39
2024/01/07 14:40:26;;;;;;;3.63;1.30;;;2.20;1.00;;;;;;20902006;28;20456;-39
2024/01/07 14:50:27;;;;;;;2.88;1.50;;;2.10;1.00;;;;;;20898982;28;20056;-39
2024/01/07 15:00:27;;;;;;;3.83;1.63;;;2.00;1.00;;;;;;20888379;28;20052;-39
2024/01/07 15:10:28;;;;;;;2.83;1.30;;;2.00;1.00;;;;;;20898537;28;20068;-39
2024/01/07 15:20:29;;;;;;;3.60;1.67;;;1.80;1.00;;;;;;20891632;28;20048;-39
2024/01/07 15:30:29;;;;;;;5.55;1.50;;;1.80;1.00;;;;;;20897798;28;20045;-39
2024/01/07 15:40:30;;;;;;;3.20;1.60;;;1.70;1.00;;;;;;20892206;28;20090;-39
2024/01/07 15:50:31;;;;;;;4.55;1.70;;;1.50;1.00;;;;;;20877734;28;20550;-39
2024/01/07 16:00:32;;;;;;;4.25;1.92;;;1.50;1.00;;;;;;20894198;28;20635;-39
2024/01/07 16:10:32;;;;;;;5.93;2.40;;;1.30;1.00;;;;;;20889653;28;20037;-39
2024/01/07 16:20:33;;;;;;;5.85;2.60;;;1.20;1.00;;;;;;20891136;28;20474;-39
2024/01/07 16:30:34;;;;;;;4.20;2.22;;;1.10;1.00;;;;;;20900499;28;20041;-40
2024/01/07 16:40:35;;;;;;;5.80;3.00;;;1.00;1.00;;;;;;20912005;28;20048;-39
2024/01/07 16:50:36;;;;;;;4.70;2.80;;;0.90;1.00;;;;;;20926389;28;20036;-39
2024/01/07 17:00:36;;;;;;;6.00;3.30;;;0.90;1.00;;;;;;20930330;28;20057;-40
2024/01/07 17:10:37;;;;;;;7.13;3.90;;;0.90;1.00;;;;;;20912877;28;20447;-40
2024/01/07 17:20:38;;;;;;;10.13;4.60;;;0.90;1.00;;;;;;20891743;28;20045;-39
2024/01/07 17:30:39;;;;;;;7.65;4.18;;;0.80;1.00;;;;;;20899963;28;20407;-39
2024/01/07 17:40:41;;;;;;;10.73;3.75;;;0.80;1.00;;;;;;20896369;28;20044;-39
2024/01/07 17:50:44;;;;;;;10.45;4.80;;;0.80;1.00;;;;;;20905111;28;20579;-40
2024/01/07 18:00:44;;;;;;;9.50;4.15;;;1.00;1.00;;;;;;20891920;28;20053;-39
2024/01/07 18:10:45;;;;;;;10.27;3.90;;;0.80;1.00;;;;;;20895355;28;20048;-40
2024/01/07 18:20:45;;;;;;;10.68;4.50;;;0.90;1.00;;;;;;20892524;28;20464;-40
2024/01/07 18:30:46;;;;;;;6.55;3.88;;;0.80;1.00;;;;;;20886940;28;20049;-40
2024/01/07 18:40:47;;;;;;;10.57;4.88;;;0.80;1.00;;;;;;20887274;28;20052;-40
2024/01/07 18:50:47;;;;;;;8.85;4.45;;;0.70;1.00;;;;;;20885800;28;20570;-42
2024/01/07 19:00:48;;;;;;;8.60;4.13;;;0.80;1.00;;;;;;20887932;28;20131;-40
2024/01/07 19:10:49;;;;;;;10.25;5.28;;;0.70;1.00;;;;;;20882259;28;20044;-40
2024/01/07 19:20:49;;;;;;;11.20;4.97;;;0.60;1.00;;;;;;20884624;28;20174;-40
2024/01/07 19:30:51;;;;;;;9.65;4.93;;;0.60;1.00;;;;;;20885069;28;20385;-40
2024/01/07 19:40:52;;;;;;;10.30;4.90;;;0.60;1.00;;;;;;20881748;28;20052;-40
2024/01/07 19:50:53;;;;;;;10.30;4.90;;;0.50;1.00;;;;;;20887508;28;20068;-40
2024/01/07 20:00:53;;;;;;;10.65;4.80;;;0.40;1.00;;;;;;20883667;28;20467;-40
2024/01/07 20:10:54;;;;;;;8.65;4.28;;;0.50;1.00;;;;;;20882514;28;20047;-41
2024/01/07 20:20:54;;;;;;;9.18;4.05;;;0.40;1.00;;;;;;20893142;28;20053;-40
2024/01/07 20:30:56;;;;;;;9.45;3.70;;;0.40;1.00;;;;;;20885198;28;20125;-40
2024/01/07 20:40:57;;;;;;;8.18;3.33;;;0.40;1.00;;;;;;20882558;28;20140;-40
2024/01/07 20:50:57;;;;;;;7.13;2.65;;;0.40;1.00;;;;;;20875973;28;20079;-40
2024/01/07 21:00:58;;;;;;;7.67;3.00;;;0.40;1.00;;;;;;20877828;28;20049;-40
2024/01/07 21:11:02;;;;;;;7.40;3.22;;;0.40;1.00;;;;;;20893046;28;20458;-40
2024/01/07 21:21:03;;;;;;;9.05;3.65;;;0.40;1.00;;;;;;20911641;28;20144;-40
2024/01/07 21:31:05;;;;;;;6.15;3.55;;;0.40;1.00;;;;;;20919174;28;20561;-40
2024/01/07 21:41:05;;;;;;;8.50;3.80;;;0.30;1.00;;;;;;20923364;28;20049;-39
2024/01/07 21:51:07;;;;;;;10.15;4.13;;;0.30;1.00;;;;;;20917444;28;20047;-40
2024/01/07 22:01:10;;;;;;;9.75;3.90;;;0.20;1.00;;;;;;20923212;28;20444;-39
2024/01/07 22:11:14;;;;;;;7.53;4.00;;;0.10;1.00;;;;;;20927008;28;20044;-39
2024/01/07 22:21:19;;;;;;;6.45;3.67;;;0.00;1.00;;;;;;20911263;28;20116;-39
2024/01/07 22:31:20;;;;;;;7.18;3.72;;;0.00;1.00;;;;;;20900311;28;20051;-39
2024/01/07 22:41:21;;;;;;;7.00;3.53;;;0.00;1.00;;;;;;20899751;28;20946;-40
2024/01/07 22:51:21;;;;;;;9.98;3.88;;;0.00;1.00;;;;;;20891738;28;20037;-40
2024/01/07 23:01:27;;;;;;;6.20;3.47;;;-0.10;1.00;;;;;;20889940;28;20059;-40
2024/01/07 23:11:28;;;;;;;7.35;3.25;;;-0.20;1.00;;;;;;20895241;28;20040;-40
2024/01/07 23:21:29;;;;;;;4.82;2.60;;;-0.10;1.00;;;;;;20895256;28;20045;-39
2024/01/07 23:31:30;;;;;;;4.93;2.92;;;-0.10;1.00;;;;;;20897763;28;20416;-40
2024/01/07 23:41:30;;;;;;;5.07;2.53;;;0.00;1.00;;;;;;20894522;28;20056;-40
2024/01/07 23:51:31;;;;;;;4.60;2.50;;;0.00;1.00;;;;;;20867307;28;20466;-39
